createdAt,value
2018-02-02T00:00:30.863Z,9.23
2018-02-02T00:02:58.381Z,7.43
2018-02-02T00:05:25.913Z,7.90
2018-02-02T00:07:53.414Z,7.32
2018-02-02T00:10:21.705Z,7.73
2018-02-02T00:12:49.206Z,7.57
2018-02-02T00:15:16.705Z,7.27
2018-02-02T00:17:44.231Z,7.17
2018-02-02T00:20:11.749Z,7.83
2018-02-02T00:22:39.262Z,8.20
2018-02-02T00:25:06.790Z,7.93
2018-02-02T00:27:34.306Z,8.30
2018-02-02T00:30:02.838Z,7.77
2018-02-02T00:32:30.370Z,7.50
2018-02-02T00:34:57.893Z,7.30
2018-02-02T00:37:25.411Z,8.03
2018-02-02T00:39:52.906Z,7.70
2018-02-02T00:42:20.470Z,8.13
2018-02-02T00:44:47.994Z,8.80
2018-02-02T00:47:15.492Z,7.90
2018-02-02T00:49:43.054Z,7.50
2018-02-02T00:52:10.873Z,8.47
2018-02-02T00:54:38.763Z,7.67
2018-02-02T00:57:06.276Z,8.40
2018-02-02T00:59:33.830Z,6.60
2018-02-02T01:02:02.100Z,6.17
2018-02-02T01:04:29.665Z,6.63
2018-02-02T01:06:57.218Z,6.33
2018-02-02T01:09:25.484Z,5.40
2018-02-02T01:11:53.146Z,6.47
2018-02-02T01:14:20.658Z,6.80
2018-02-02T01:16:48.151Z,6.33
2018-02-02T01:19:15.658Z,6.33
2018-02-02T01:21:43.148Z,6.40
2018-02-02T01:24:10.653Z,6.80
2018-02-02T01:26:38.916Z,7.77
2018-02-02T01:29:06.501Z,5.30
2018-02-02T01:31:33.996Z,6.83
2018-02-02T01:34:01.496Z,6.87
2018-02-02T01:36:29.805Z,6.83
2018-02-02T01:38:57.330Z,7.13
2018-02-02T01:41:24.841Z,7.07
2018-02-02T01:43:52.357Z,6.40
2018-02-02T01:46:20.628Z,7.03
2018-02-02T01:48:48.156Z,7.83
2018-02-02T01:51:15.678Z,6.57
2018-02-02T01:53:43.229Z,7.30
2018-02-02T01:56:10.727Z,7.13
2018-02-02T01:58:38.485Z,6.90
2018-02-02T02:01:06.351Z,6.97
2018-02-02T02:03:33.868Z,6.93
2018-02-02T02:06:02.198Z,7.67
2018-02-02T02:08:29.717Z,7.20
2018-02-02T02:10:57.993Z,5.87
2018-02-02T02:13:25.546Z,7.33
2018-02-02T02:15:53.809Z,7.23
2018-02-02T02:18:21.301Z,10.53
2018-02-02T02:20:48.797Z,8.17
2018-02-02T02:23:16.315Z,7.83
2018-02-02T02:25:43.830Z,8.50
2018-02-02T02:28:11.350Z,7.53
2018-02-02T02:30:38.877Z,9.03
2018-02-02T02:33:07.225Z,8.13
2018-02-02T02:35:34.762Z,8.70
2018-02-02T02:38:02.258Z,8.87
2018-02-02T02:40:29.764Z,9.53
2018-02-02T02:42:57.294Z,9.23
2018-02-02T02:45:25.640Z,8.47
2018-02-02T02:47:53.194Z,8.73
2018-02-02T02:50:20.730Z,8.23
2018-02-02T02:52:48.298Z,9.33
2018-02-02T02:55:15.810Z,8.07
2018-02-02T02:57:44.084Z,7.97
2018-02-02T03:00:12.361Z,9.50
2018-02-02T03:02:40.671Z,9.83
2018-02-02T03:05:08.259Z,9.60
2018-02-02T03:07:36.545Z,9.37
2018-02-02T03:10:04.133Z,9.47
2018-02-02T03:12:32.403Z,9.37
2018-02-02T03:14:59.923Z,10.60
2018-02-02T03:17:27.449Z,11.03
2018-02-02T03:19:54.958Z,11.80
2018-02-02T03:22:22.482Z,12.33
2018-02-02T03:24:49.990Z,12.37
2018-02-02T03:27:17.513Z,11.03
2018-02-02T03:29:45.084Z,12.73
2018-02-02T03:32:12.584Z,13.17
2018-02-02T03:34:40.861Z,13.63
2018-02-02T03:37:09.161Z,12.93
2018-02-02T03:39:36.681Z,15.30
2018-02-02T03:42:04.261Z,14.25
2018-02-02T03:44:31.778Z,14.67
2018-02-02T03:46:59.288Z,14.00
2018-02-02T03:49:27.605Z,13.53
2018-02-02T03:51:55.185Z,14.40
2018-02-02T03:54:22.702Z,14.27
2018-02-02T03:56:50.226Z,13.68
2018-02-02T03:59:17.725Z,14.70
2018-02-02T04:01:45.233Z,14.70
2018-02-02T04:04:12.768Z,16.95
2018-02-02T04:06:40.294Z,16.95
2018-02-02T04:09:07.789Z,16.80
2018-02-02T04:11:35.355Z,16.93
2018-02-02T04:14:02.868Z,14.95
2018-02-02T04:16:30.345Z,15.37
2018-02-02T04:18:57.824Z,14.33
2018-02-02T04:21:25.301Z,16.20
2018-02-02T04:23:52.784Z,15.43
2018-02-02T04:26:20.253Z,16.47
2018-02-02T04:28:48.501Z,14.40
2018-02-02T04:31:15.975Z,15.48
2018-02-02T04:33:43.461Z,15.70
2018-02-02T04:36:11.376Z,16.45
2018-02-02T04:38:38.860Z,13.93
2018-02-02T04:41:07.106Z,16.27
2018-02-02T04:43:34.622Z,16.23
2018-02-02T04:46:02.085Z,17.20
2018-02-02T04:48:29.577Z,16.27
2018-02-02T04:50:57.817Z,16.70
2018-02-02T04:53:25.306Z,16.97
2018-02-02T04:55:52.773Z,17.55
2018-02-02T04:58:20.253Z,18.45
2018-02-02T05:00:47.729Z,18.33
2018-02-02T05:03:15.960Z,19.27
2018-02-02T05:05:43.432Z,18.80
2018-02-02T05:08:10.898Z,19.53
2018-02-02T05:10:38.381Z,18.63
2018-02-02T05:13:06.620Z,17.97
2018-02-02T05:15:34.096Z,19.27
2018-02-02T05:18:01.573Z,19.13
2018-02-02T05:20:29.876Z,17.97
2018-02-02T05:22:57.295Z,17.63
2018-02-02T05:25:24.768Z,20.27
2018-02-02T05:27:52.996Z,19.10
2018-02-02T05:30:21.246Z,20.00
2018-02-02T05:32:48.721Z,20.13
2018-02-02T05:35:16.256Z,20.00
2018-02-02T05:37:43.789Z,17.63
2018-02-02T05:40:12.065Z,19.83
2018-02-02T05:42:39.589Z,21.37
2018-02-02T05:45:07.147Z,18.90
2018-02-02T05:47:34.763Z,17.23
2018-02-02T05:50:02.303Z,16.73
2018-02-02T05:52:29.821Z,20.23
2018-02-02T05:54:57.331Z,16.87
2018-02-02T05:57:25.629Z,18.03
2018-02-02T05:59:53.162Z,19.93
2018-02-02T06:02:20.700Z,17.70
2018-02-02T06:04:48.217Z,15.30
2018-02-02T06:07:15.737Z,17.97
2018-02-02T06:09:43.229Z,15.73
2018-02-02T06:12:10.729Z,18.77
2018-02-02T06:14:38.241Z,14.77
2018-02-02T06:17:05.831Z,14.20
2018-02-02T06:19:37.379Z,17.40
2018-02-02T06:22:04.945Z,17.83
2018-02-02T06:24:33.588Z,18.17
2018-02-02T06:27:01.866Z,16.93
2018-02-02T06:29:30.185Z,18.60
2018-02-02T06:31:57.693Z,18.90
2018-02-02T06:34:25.973Z,17.47
2018-02-02T06:36:59.947Z,17.00
2018-02-02T06:39:27.452Z,18.97
2018-02-02T06:41:55.720Z,15.20
2018-02-02T06:44:23.999Z,15.47
2018-02-02T06:46:52.269Z,15.47
2018-02-02T06:49:20.537Z,19.17
2018-02-02T06:51:48.033Z,16.33
2018-02-02T06:54:15.542Z,16.53
2018-02-02T06:56:43.085Z,16.43
2018-02-02T06:59:10.941Z,15.93
2018-02-02T07:01:38.462Z,19.10
2018-02-02T07:04:06.762Z,24.60
2018-02-02T07:06:34.283Z,21.77
2018-02-02T07:09:02.107Z,32.37
2018-02-02T07:11:29.598Z,19.73
2018-02-02T07:13:57.082Z,21.97
2018-02-02T07:16:25.352Z,19.33
2018-02-02T07:18:53.626Z,16.67
2018-02-02T07:21:21.901Z,19.70
2018-02-02T07:23:49.405Z,15.23
2018-02-02T07:26:16.917Z,18.27
2018-02-02T07:28:44.446Z,17.80
2018-02-02T07:31:11.952Z,15.93
2018-02-02T07:33:40.205Z,15.03
2018-02-02T07:36:07.705Z,18.33
2018-02-02T07:38:35.205Z,14.83
2018-02-02T07:41:02.721Z,17.70
2018-02-02T07:43:30.221Z,15.73
2018-02-02T07:45:57.785Z,16.37
2018-02-02T07:48:25.327Z,14.57
2018-02-02T07:50:52.857Z,14.40
2018-02-02T07:53:20.375Z,15.57
2018-02-02T07:55:47.934Z,13.83
2018-02-02T07:58:15.499Z,14.77
2018-02-02T08:00:48.705Z,9.00
2018-02-02T08:03:16.981Z,10.67
2018-02-02T08:05:44.506Z,11.77
2018-02-02T08:08:12.023Z,10.03
2018-02-02T08:10:39.557Z,11.70
2018-02-02T08:13:07.097Z,10.70
2018-02-02T08:15:34.643Z,10.87
2018-02-02T08:18:02.161Z,11.60
2018-02-02T08:20:29.663Z,13.00
2018-02-02T08:22:57.249Z,13.13
2018-02-02T08:25:24.770Z,14.37
2018-02-02T08:27:52.310Z,13.77
2018-02-02T08:30:19.822Z,12.87
2018-02-02T08:32:47.322Z,12.73
2018-02-02T08:35:14.836Z,12.50
2018-02-02T08:37:42.386Z,12.43
2018-02-02T08:40:09.922Z,11.40
2018-02-02T08:42:37.417Z,12.70
2018-02-02T08:45:04.948Z,11.07
2018-02-02T08:47:32.474Z,12.80
2018-02-02T08:50:00.748Z,13.30
2018-02-02T08:52:29.015Z,12.80
2018-02-02T08:54:57.280Z,12.97
2018-02-02T08:57:24.773Z,13.63
2018-02-02T08:59:52.280Z,14.00
2018-02-02T09:02:19.808Z,13.90
2018-02-02T09:04:47.320Z,12.93
2018-02-02T09:07:14.818Z,13.00
2018-02-02T09:09:42.316Z,13.53
2018-02-02T09:12:09.848Z,13.00
2018-02-02T09:14:37.417Z,12.93
2018-02-02T09:17:04.910Z,13.83
2018-02-02T09:19:32.430Z,12.73
2018-02-02T09:21:59.458Z,10.77
2018-02-02T09:24:26.975Z,9.87
2018-02-02T09:26:53.993Z,9.30
2018-02-02T09:29:21.490Z,10.37
2018-02-02T09:31:49.780Z,10.67
2018-02-02T09:34:18.040Z,10.80
2018-02-02T09:36:45.577Z,12.60
2018-02-02T09:39:13.115Z,11.97
2018-02-02T09:41:40.638Z,11.77
2018-02-02T09:44:08.901Z,11.53
2018-02-02T09:46:37.193Z,12.63
2018-02-02T09:49:05.493Z,12.97
2018-02-02T09:51:33.014Z,14.33
2018-02-02T09:54:00.504Z,13.53
2018-02-02T09:56:28.059Z,14.30
2018-02-02T09:58:55.573Z,11.67
2018-02-02T10:01:23.068Z,13.90
2018-02-02T10:03:51.357Z,11.93
2018-02-02T10:06:19.146Z,12.73
2018-02-02T10:08:46.670Z,13.67
2018-02-02T10:11:14.197Z,12.83
2018-02-02T10:13:41.726Z,12.50
2018-02-02T10:16:09.261Z,14.90
2018-02-02T10:18:36.792Z,15.77
2018-02-02T10:21:04.314Z,17.07
2018-02-02T10:23:32.307Z,15.53
2018-02-02T10:25:59.851Z,16.50
2018-02-02T10:28:27.456Z,16.10
2018-02-02T10:30:55.017Z,15.50
2018-02-02T10:33:23.315Z,15.20
2018-02-02T10:35:50.861Z,16.37
2018-02-02T10:38:18.365Z,14.30
2018-02-02T10:40:45.954Z,12.83
2018-02-02T10:43:13.477Z,12.93
2018-02-02T10:45:40.977Z,12.40
2018-02-02T10:48:09.253Z,11.60
2018-02-02T10:50:36.766Z,11.77
2018-02-02T10:53:04.267Z,11.27
2018-02-02T10:55:31.798Z,12.03
2018-02-02T10:57:59.327Z,12.70
2018-02-02T11:00:26.897Z,14.00
2018-02-02T11:03:00.201Z,13.83
2018-02-02T11:05:27.709Z,14.87
2018-02-02T11:07:57.213Z,14.80
2018-02-02T11:10:24.717Z,14.40
2018-02-02T11:12:52.231Z,14.33
2018-02-02T11:15:20.513Z,12.13
2018-02-02T11:17:48.862Z,12.40
2018-02-02T11:20:16.366Z,12.90
2018-02-02T11:22:44.625Z,12.70
2018-02-02T11:25:12.893Z,12.07
2018-02-02T11:27:40.409Z,10.77
2018-02-02T11:30:07.894Z,10.20
2018-02-02T11:32:35.393Z,9.07
2018-02-02T11:35:03.661Z,8.60
2018-02-02T11:37:31.980Z,8.20
2018-02-02T11:39:59.514Z,7.00
2018-02-02T11:42:27.047Z,9.00
2018-02-02T11:44:54.557Z,9.27
2018-02-02T11:47:22.048Z,9.97
2018-02-02T11:49:49.588Z,8.73
2018-02-02T11:52:17.145Z,7.00
2018-02-02T11:54:44.633Z,6.77
2018-02-02T11:57:12.152Z,6.73
2018-02-02T11:59:39.656Z,6.63
2018-02-02T12:02:07.158Z,6.97
2018-02-02T12:04:34.677Z,7.27
2018-02-02T12:07:02.209Z,7.90
2018-02-02T12:09:29.719Z,7.67
2018-02-02T12:11:57.989Z,7.83
2018-02-02T12:14:26.298Z,7.27
2018-02-02T12:16:53.797Z,8.30
2018-02-02T12:19:21.362Z,7.73
2018-02-02T12:21:49.306Z,8.97
2018-02-02T12:24:22.682Z,8.37
2018-02-02T12:27:04.009Z,10.37
2018-02-02T12:29:37.150Z,10.63
2018-02-02T12:32:14.560Z,10.70
2018-02-02T12:34:42.705Z,10.77
2018-02-02T12:37:10.221Z,12.40
2018-02-02T12:39:37.734Z,24.23
2018-02-02T12:42:05.257Z,18.27
2018-02-02T12:44:32.757Z,15.33
2018-02-02T12:47:00.259Z,19.20
2018-02-02T12:49:31.554Z,12.97
2018-02-02T12:51:59.109Z,12.43
2018-02-02T12:54:26.575Z,11.50
2018-02-02T12:56:54.060Z,15.77
2018-02-02T12:59:21.528Z,12.43
2018-02-02T13:01:48.999Z,13.70
2018-02-02T13:04:16.476Z,37.53
2018-02-02T13:06:43.956Z,12.17
2018-02-02T13:09:12.194Z,11.10
2018-02-02T13:11:39.676Z,11.90
2018-02-02T13:14:07.912Z,11.80
2018-02-02T13:16:35.406Z,48.23
2018-02-02T13:19:02.868Z,11.43
2018-02-02T13:21:31.124Z,11.20
2018-02-02T13:23:58.588Z,12.07
2018-02-02T13:26:26.060Z,10.30
2018-02-02T13:28:54.301Z,10.87
2018-02-02T13:31:21.768Z,13.80
2018-02-02T13:33:49.244Z,12.90
2018-02-02T13:36:16.716Z,13.57
2018-02-02T13:38:44.966Z,12.73
2018-02-02T13:41:12.432Z,13.07
2018-02-02T13:43:39.916Z,13.07
2018-02-02T13:46:08.161Z,13.60
2018-02-02T13:48:35.640Z,15.60
2018-02-02T13:51:03.913Z,13.33
2018-02-02T13:53:31.388Z,14.23
2018-02-02T13:55:58.860Z,12.40
2018-02-02T13:58:26.348Z,12.03
2018-02-02T14:00:53.824Z,12.27
2018-02-02T14:03:21.288Z,12.60
2018-02-02T14:05:48.767Z,11.60
2018-02-02T14:08:17.004Z,12.10
2018-02-02T14:10:44.476Z,10.43
2018-02-02T14:13:11.979Z,9.47
2018-02-02T14:15:40.203Z,10.07
2018-02-02T14:18:07.668Z,8.80
2018-02-02T14:20:35.144Z,8.80
2018-02-02T14:23:02.614Z,8.13
2018-02-02T14:25:30.894Z,7.23
2018-02-02T14:27:59.130Z,7.33
2018-02-02T14:30:26.868Z,8.43
2018-02-02T14:32:54.632Z,7.20
2018-02-02T14:35:22.109Z,6.80
2018-02-02T14:37:49.573Z,7.30
2018-02-02T14:40:17.056Z,8.30
2018-02-02T14:42:44.523Z,8.43
2018-02-02T14:45:12.786Z,8.67
2018-02-02T14:47:40.253Z,8.00
2018-02-02T14:50:07.724Z,8.27
2018-02-02T14:52:35.956Z,7.83
2018-02-02T14:55:03.429Z,9.27
2018-02-02T14:57:30.905Z,8.27
2018-02-02T14:59:58.372Z,9.93
2018-02-02T15:02:26.616Z,8.60
2018-02-02T15:04:54.348Z,8.70
2018-02-02T15:07:21.824Z,7.83
2018-02-02T15:09:49.292Z,7.17
2018-02-02T15:12:16.760Z,8.87
2018-02-02T15:14:44.230Z,9.03
2018-02-02T15:17:11.711Z,12.10
2018-02-02T15:19:39.949Z,9.93
2018-02-02T15:22:07.419Z,11.23
2018-02-02T15:24:34.892Z,10.57
2018-02-02T15:27:03.144Z,10.77
2018-02-02T15:29:30.620Z,11.83
2018-02-02T15:31:58.092Z,13.30
2018-02-02T15:34:26.332Z,14.73
2018-02-02T15:36:53.801Z,13.63
2018-02-02T15:39:21.286Z,12.83
2018-02-02T15:41:49.520Z,15.87
2018-02-02T15:44:16.992Z,11.13
2018-02-02T15:46:44.469Z,11.23
2018-02-02T15:49:11.948Z,11.53
2018-02-02T15:51:39.425Z,14.70
2018-02-02T15:54:06.903Z,19.43
2018-02-02T15:56:34.368Z,22.00
2018-02-02T15:59:01.851Z,24.73
2018-02-02T16:01:29.315Z,10.70
2018-02-02T16:03:56.808Z,15.07
2018-02-02T16:06:24.284Z,11.90
2018-02-02T16:08:51.760Z,10.53
2018-02-02T16:11:19.233Z,12.37
2018-02-02T16:13:46.736Z,12.10
2018-02-02T16:16:14.204Z,12.30
2018-02-02T16:18:41.708Z,11.40
2018-02-02T16:21:09.956Z,12.50
2018-02-02T16:23:37.428Z,13.00
2018-02-02T16:26:05.725Z,12.83
2018-02-02T16:28:33.193Z,12.60
2018-02-02T16:31:00.669Z,13.60
2018-02-02T16:33:28.911Z,13.57
2018-02-02T16:35:56.380Z,14.10
2018-02-02T16:38:23.849Z,13.37
2018-02-02T16:40:52.092Z,12.83
2018-02-02T16:43:19.564Z,14.17
2018-02-02T16:45:47.804Z,15.20
2018-02-02T16:48:15.282Z,14.67
2018-02-02T16:50:42.765Z,14.10
2018-02-02T16:53:11.736Z,15.70
2018-02-02T16:55:39.224Z,13.93
2018-02-02T16:58:07.024Z,15.37
2018-02-02T17:00:34.490Z,14.67
2018-02-02T17:03:01.961Z,13.90
2018-02-02T17:05:29.439Z,15.93
2018-02-02T17:07:57.821Z,15.57
2018-02-02T17:10:25.309Z,16.03
2018-02-02T17:12:53.849Z,16.57
2018-02-02T17:15:22.622Z,15.73
2018-02-02T17:17:51.794Z,15.77
2018-02-02T17:20:19.719Z,16.40
2018-02-02T17:22:47.209Z,15.10
2018-02-02T17:25:15.444Z,15.43
2018-02-02T17:27:42.925Z,14.13
2018-02-02T17:30:10.440Z,14.53
2018-02-02T17:32:37.916Z,14.63
2018-02-02T17:35:05.376Z,14.37
2018-02-02T17:37:32.884Z,13.40
2018-02-02T17:40:01.117Z,13.00
2018-02-02T17:42:28.591Z,14.83
2018-02-02T17:44:56.069Z,14.67
2018-02-02T17:47:24.340Z,15.70
2018-02-02T17:49:51.821Z,66.00
2018-02-02T17:52:19.296Z,36.77
2018-02-02T17:54:46.772Z,14.03
2018-02-02T17:57:14.240Z,14.07
2018-02-02T17:59:41.724Z,11.87
2018-02-02T18:02:09.192Z,12.93
2018-02-02T18:04:37.442Z,13.03
2018-02-02T18:07:04.921Z,13.33
2018-02-02T18:09:32.422Z,13.03
2018-02-02T18:11:59.892Z,16.10
2018-02-02T18:14:27.373Z,12.40
2018-02-02T18:16:54.844Z,14.70
2018-02-02T18:19:22.317Z,13.47
2018-02-02T18:21:49.787Z,13.97
2018-02-02T18:24:18.033Z,14.97
2018-02-02T18:26:45.513Z,15.67
2018-02-02T18:29:12.978Z,16.80
2018-02-02T18:31:41.228Z,16.67
2018-02-02T18:34:08.711Z,16.30
2018-02-02T18:36:36.961Z,16.77
2018-02-02T18:39:04.473Z,16.90
2018-02-02T18:41:32.001Z,18.13
2018-02-02T18:43:59.493Z,17.77
2018-02-02T18:46:27.025Z,18.03
2018-02-02T18:48:55.310Z,18.37
2018-02-02T18:51:22.819Z,18.17
2018-02-02T18:53:50.321Z,18.77
2018-02-02T18:56:18.662Z,18.53
2018-02-02T18:58:46.269Z,17.30
2018-02-02T19:01:14.582Z,18.30
2018-02-02T19:03:42.086Z,18.13
2018-02-02T19:06:09.649Z,19.50
2018-02-02T19:08:37.914Z,17.87
2018-02-02T19:11:05.408Z,19.33
2018-02-02T19:13:32.969Z,19.20
2018-02-02T19:16:00.530Z,20.60
2018-02-02T19:18:28.060Z,19.20
2018-02-02T19:20:55.673Z,21.17
2018-02-02T19:23:23.189Z,21.77
2018-02-02T19:25:51.473Z,21.70
2018-02-02T19:28:19.816Z,21.40
2018-02-02T19:30:47.321Z,20.27
2018-02-02T19:33:14.929Z,21.40
2018-02-02T19:35:42.451Z,22.83
2018-02-02T19:38:10.017Z,22.20
2018-02-02T19:40:37.610Z,22.30
2018-02-02T19:43:05.238Z,23.27
2018-02-02T19:45:32.824Z,24.97
2018-02-02T19:48:01.212Z,23.90
2018-02-02T19:50:28.741Z,25.03
2018-02-02T19:52:56.355Z,26.77
2018-02-02T19:55:23.948Z,24.70
2018-02-02T19:57:51.928Z,27.50
2018-02-02T20:00:19.405Z,28.40
2018-02-02T20:02:47.009Z,29.30
2018-02-02T20:05:14.508Z,27.73
2018-02-02T20:07:42.050Z,26.87
2018-02-02T20:10:10.404Z,26.47
2018-02-02T20:12:37.897Z,28.27
2018-02-02T20:15:05.463Z,26.97
2018-02-02T20:17:32.983Z,26.80
2018-02-02T20:20:00.493Z,24.83
2018-02-02T20:22:28.028Z,28.23
2018-02-02T20:24:56.353Z,26.47
2018-02-02T20:27:23.909Z,27.70
2018-02-02T20:29:51.443Z,27.03
2018-02-02T20:32:19.225Z,29.00
2018-02-02T20:34:46.828Z,28.07
2018-02-02T20:37:14.335Z,26.73
2018-02-02T20:39:41.917Z,26.37
2018-02-02T20:42:09.494Z,27.00
2018-02-02T20:44:37.090Z,28.83
2018-02-02T20:47:04.639Z,28.47
2018-02-02T20:49:33.032Z,31.80
2018-02-02T20:52:00.518Z,28.33
2018-02-02T20:54:28.084Z,28.33
2018-02-02T20:56:55.673Z,29.97
2018-02-02T20:59:24.737Z,29.40
2018-02-02T21:01:52.251Z,28.07
2018-02-02T21:04:20.622Z,29.20
2018-02-02T21:06:48.121Z,27.70
2018-02-02T21:09:15.731Z,27.97
2018-02-02T21:11:43.268Z,26.10
2018-02-02T21:14:10.813Z,27.40
2018-02-02T21:16:38.896Z,27.33
2018-02-02T21:19:06.469Z,27.67
2018-02-02T21:21:33.985Z,28.37
2018-02-02T21:24:02.274Z,27.57
2018-02-02T21:26:29.793Z,27.63
2018-02-02T21:28:57.393Z,28.37
2018-02-02T21:31:24.942Z,29.10
2018-02-02T21:33:52.597Z,28.60
2018-02-02T21:36:20.912Z,29.17
2018-02-02T21:38:48.437Z,29.90
2018-02-02T21:41:16.761Z,29.93
2018-02-02T21:43:44.379Z,29.17
2018-02-02T21:46:12.292Z,27.23
2018-02-02T21:48:39.812Z,26.43
2018-02-02T21:51:07.419Z,27.77
2018-02-02T21:53:35.018Z,25.43
2018-02-02T21:56:03.329Z,24.10
2018-02-02T21:58:30.854Z,22.60
2018-02-02T22:00:59.164Z,22.77
2018-02-02T22:03:26.726Z,22.40
2018-02-02T22:05:54.261Z,22.47
2018-02-02T22:08:22.543Z,19.67
2018-02-02T22:10:50.910Z,22.33
2018-02-02T22:13:19.277Z,16.60
2018-02-02T22:15:46.839Z,18.73
2018-02-02T22:18:14.372Z,14.43
2018-02-02T22:20:42.654Z,13.23
2018-02-02T22:23:10.210Z,14.30
2018-02-02T22:25:37.846Z,12.87
2018-02-02T22:28:05.368Z,13.13
2018-02-02T22:30:33.691Z,13.00
2018-02-02T22:33:01.245Z,13.60
2018-02-02T22:35:28.784Z,13.10
2018-02-02T22:37:57.751Z,12.73
2018-02-02T22:40:25.257Z,12.60
2018-02-02T22:42:52.756Z,13.47
2018-02-02T22:45:20.326Z,13.40
2018-02-02T22:47:47.870Z,12.40
2018-02-02T22:50:15.397Z,13.23
2018-02-02T22:52:42.898Z,12.10
2018-02-02T22:55:11.189Z,12.23
2018-02-02T22:57:39.514Z,11.87
2018-02-02T23:00:07.049Z,11.90
2018-02-02T23:02:34.561Z,12.10
2018-02-02T23:05:02.165Z,10.97
2018-02-02T23:07:29.697Z,12.27
2018-02-02T23:09:57.258Z,11.40
2018-02-02T23:12:24.764Z,11.43
2018-02-02T23:14:52.254Z,11.47
2018-02-02T23:17:19.785Z,10.67
2018-02-02T23:19:47.368Z,10.33
2018-02-02T23:22:14.957Z,11.80
2018-02-02T23:24:42.517Z,12.47
2018-02-02T23:27:10.061Z,12.90
2018-02-02T23:29:37.585Z,12.60
2018-02-02T23:32:05.134Z,12.67
2018-02-02T23:34:32.632Z,11.80
2018-02-02T23:37:00.181Z,10.77
2018-02-02T23:39:27.745Z,11.43
2018-02-02T23:41:55.255Z,11.60
2018-02-02T23:44:23.542Z,11.47
2018-02-02T23:46:51.037Z,12.30
2018-02-02T23:49:18.529Z,11.80
2018-02-02T23:51:46.026Z,11.07
2018-02-02T23:54:13.531Z,12.03
2018-02-02T23:56:41.039Z,12.10
2018-02-02T23:59:08.548Z,11.77
